Rechercher aéroport 
image banner adimage banner adimage banner ad
image banner ad

CL74 - Skyotee Ranch

Situé à Rosamond, United States

ICAO - CL74, IATA -

Données fournies par Airmate  

Information générale

Coordonnées: N34°49'55" W118°24'3"
Élévation : 2600 feet MSL.
Variation magnétique : 14° East
Voir autres Aéroports à California

Données opérationnelles

Special qualification required
Heure actuelle UTC:
Heure actuelle locale:
Météo à : KWJF - General Wm J Fox Airfield ( 19 km )
METAR: KWJF 251256Z AUTO 24011KT 10SM CLR 24/04 A2997 RMK AO2 SLP124 T02440039
TAF: KWJF 251158Z 2512/2612 23007KT P6SM BKN120 FM252100 23015G23KT P6SM BKN070 OVC120 FM260300 23010KT P6SM OVC120 FM260900 21007KT P6SM VCSH OVC120
Voir NOTAMs / SUP AIP / TFR affectant cet aéroport [VIEW]
Fréquences de communication: [VIEW]

Pistes:

Identifiant RWYQFULongueur (ft)Largeur (ft)SurfaceLDA (ft)
072600100EARTH
252600100EARTH

Coordonnées de l'aéroport

Adresse: Rosamond United States

Vue satellite de CL74